Terminal Aerodrome Forecast
Issued by NWS

Home | Current Version | Previous Version | Graphics & Text | Print | Product List | Glossary On
Versions: 1 2 3 4 5 6 7 8 9 10 11 12 13 14
000
FTUS43 KTOP 251122
TAFFOE
TAF
KFOE 251122Z 2512/2612 15010KT P6SM SCT090 BKN200
     FM251300 16012G22KT P6SM SCT090 BKN200
     FM252100 21006KT P6SM OVC030
     FM260100 34012G22KT 5SM -TSRA SCT004 OVC025CB
     FM260300 33012KT P6SM -SHRA SCT007 OVC020
     FM260800 34015KT P6SM -SHRA OVC007=

USA.gov is the U.S. government's official web portal to all federal, state and local government web resources and services.